Time;durP1;ratioP1;P1;durP2;ratioP2;P2;SDS_P1;SDS_P2;PMS_P1;PMS_P2;Temp;Humidity;BMP_temperature;BMP_pressure;BME280_temperature;BME280_humidity;BME280_pressure;Samples;Min_cycle;Max_cycle;Signal;HPM_P1;HPM_P2
2022/11/03 00:01:49;;;;;;;45.90;9.82;;;;;;;11.11;100.00;98431.63;4996285;28;20044;-61
2022/11/03 00:04:17;;;;;;;37.60;8.98;;;;;;;11.65;100.00;98424.38;4994260;28;20025;-60
2022/11/03 00:06:44;;;;;;;40.17;9.02;;;;;;;10.90;100.00;98428.88;4997427;28;20431;-63
2022/11/03 00:09:12;;;;;;;32.33;8.02;;;;;;;11.61;100.00;98428.88;4996380;28;20030;-60
2022/11/03 00:11:39;;;;;;;39.00;8.18;;;;;;;12.10;100.00;98426.13;4995781;28;20037;-60
2022/11/03 00:14:06;;;;;;;30.42;8.07;;;;;;;11.97;100.00;98430.16;4997284;28;20054;-61
2022/11/03 00:16:32;;;;;;;33.30;8.82;;;;;;;11.81;100.00;98420.25;4994192;28;20053;-60
2022/11/03 00:18:57;;;;;;;36.03;8.52;;;;;;;11.93;100.00;98422.44;4994267;28;20436;-63
2022/11/03 00:21:23;;;;;;;27.02;7.63;;;;;;;11.94;100.00;98425.88;4998100;28;20695;-60
2022/11/03 00:23:48;;;;;;;38.13;8.65;;;;;;;11.97;100.00;98424.94;4997489;28;20021;-60
2022/11/03 00:26:22;;;;;;;32.20;8.32;;;;;;;11.46;100.00;98413.78;4996965;28;20038;-58
2022/11/03 00:28:53;;;;;;;40.95;8.40;;;;;;;12.14;100.00;98423.31;4996087;28;20026;-61
2022/11/03 00:31:23;;;;;;;28.80;7.65;;;;;;;12.19;100.00;98409.22;4996467;28;20037;-61
2022/11/03 00:33:49;;;;;;;41.15;8.60;;;;;;;12.01;100.00;98409.06;4998078;28;20032;-60
2022/11/03 00:36:19;;;;;;;27.35;7.57;;;;;;;12.14;100.00;98407.63;4999454;28;20046;-61
2022/11/03 00:38:45;;;;;;;32.40;7.63;;;;;;;11.38;100.00;98390.59;4996212;28;20117;-60
2022/11/03 00:41:11;;;;;;;31.35;7.68;;;;;;;12.02;100.00;98402.91;4988952;28;20034;-62
2022/11/03 00:43:37;;;;;;;33.00;7.97;;;;;;;12.05;100.00;98397.53;4996198;28;20105;-62
2022/11/03 00:46:04;;;;;;;34.97;8.10;;;;;;;12.12;100.00;98401.63;4995665;28;20042;-61
2022/11/03 00:48:33;;;;;;;30.85;7.28;;;;;;;12.35;100.00;98394.56;4995577;28;20030;-60
2022/11/03 00:51:05;;;;;;;35.20;7.95;;;;;;;11.94;100.00;98389.28;4996726;28;20038;-60
2022/11/03 00:53:32;;;;;;;28.52;6.93;;;;;;;12.00;100.00;98383.81;4997731;28;20087;-60
2022/11/03 00:55:58;;;;;;;34.60;8.05;;;;;;;11.94;100.00;98379.69;4995791;28;20042;-60
2022/11/03 00:58:23;;;;;;;28.05;6.97;;;;;;;11.86;100.00;98386.13;4997230;28;20026;-60
2022/11/03 01:00:49;;;;;;;32.95;7.90;;;;;;;12.14;100.00;98380.63;4994513;28;20046;-60
2022/11/03 01:03:14;;;;;;;39.97;8.63;;;;;;;11.81;100.00;98372.38;4995333;28;20528;-60
2022/11/03 01:08:36;;;;;;;26.27;6.68;;;;;;;12.44;100.00;98373.28;4999217;28;20161;-61
2022/11/03 01:13:53;;;;;;;20.52;5.95;;;;;;;12.55;100.00;98364.94;4993600;28;20060;-60
2022/11/03 01:16:19;;;;;;;36.85;8.00;;;;;;;11.31;100.00;98361.22;4994979;28;20037;-60
2022/11/03 01:18:44;;;;;;;27.63;7.22;;;;;;;11.84;100.00;98361.81;4994612;28;20475;-60
2022/11/03 01:21:09;;;;;;;28.05;6.93;;;;;;;12.87;100.00;98358.31;4993261;28;20034;-60
2022/11/03 01:23:35;;;;;;;30.30;7.43;;;;;;;12.30;100.00;98358.16;4996058;28;20111;-60
2022/11/03 01:26:04;;;;;;;25.20;6.60;;;;;;;12.26;100.00;98358.34;4995540;28;20091;-62
2022/11/03 01:28:32;;;;;;;31.52;7.78;;;;;;;12.19;100.00;98362.16;4997846;28;20028;-61
2022/11/03 01:31:02;;;;;;;24.83;6.50;;;;;;;11.86;100.00;98349.53;4995568;28;20042;-61
2022/11/03 01:33:28;;;;;;;31.77;7.07;;;;;;;11.56;100.00;98341.97;4994915;28;20026;-60
2022/11/03 01:35:53;;;;;;;30.02;7.00;;;;;;;12.12;100.00;98336.25;4996277;28;20073;-60
2022/11/03 01:38:18;;;;;;;28.70;7.18;;;;;;;12.33;100.00;98346.72;4997500;28;20157;-61
2022/11/03 01:40:44;;;;;;;31.55;7.40;;;;;;;12.37;100.00;98348.31;4997362;28;20038;-60
2022/11/03 01:43:17;;;;;;;29.52;7.10;;;;;;;12.20;100.00;98333.31;4994117;28;20041;-60
2022/11/03 01:45:43;;;;;;;34.78;7.50;;;;;;;12.18;100.00;98329.06;4997756;28;20042;-61
2022/11/03 01:48:11;;;;;;;29.20;6.53;;;;;;;11.66;100.00;98321.59;4996505;28;20463;-60
2022/11/03 01:50:37;;;;;;;35.58;7.63;;;;;;;12.17;100.00;98323.00;4992953;28;20047;-62
2022/11/03 01:53:03;;;;;;;26.77;6.70;;;;;;;11.82;100.00;98313.94;4990925;28;20044;-60
2022/11/03 01:55:35;;;;;;;25.05;6.40;;;;;;;12.38;100.00;98315.13;4992647;28;20037;-60
2022/11/03 01:58:14;;;;;;;27.85;6.40;;;;;;;12.17;100.00;98316.88;4995734;28;20053;-60
2022/11/03 02:05:52;;;;;;;160.20;19.33;;;;;;;12.22;100.00;98314.94;5964002;23;20237;-58
2022/11/03 02:24:00;;;;;;;100.05;13.65;;;;;;;11.61;100.00;98285.16;6023819;23;20099;-57
2022/11/03 02:41:59;;;;;;;159.48;19.55;;;;;;;11.90;100.00;98268.31;5947763;23;20048;-60
2022/11/03 03:00:06;;;;;;;149.23;19.58;;;;;;;10.77;100.00;98263.19;6019521;22;20015;-57
2022/11/03 03:02:37;;;;;;;25.15;7.07;;;;;;;10.24;100.00;98253.81;5007124;28;20128;-61
2022/11/03 03:05:07;;;;;;;34.15;8.13;;;;;;;10.55;100.00;98245.75;5016148;28;20604;-58
2022/11/03 03:07:36;;;;;;;34.60;7.75;;;;;;;11.25;100.00;98241.34;5017608;28;20049;-60
2022/11/03 03:10:04;;;;;;;37.47;7.72;;;;;;;11.29;100.00;98240.31;5019451;28;20092;-60
2022/11/03 03:12:33;;;;;;;29.58;7.25;;;;;;;11.00;100.00;98237.09;5020228;28;20917;-59
2022/11/03 03:15:01;;;;;;;31.83;6.70;;;;;;;11.05;100.00;98236.06;5017474;28;20041;-58
2022/11/03 03:17:58;;;;;;;30.08;6.13;;;;;;;10.56;100.00;98231.78;5019340;28;20061;-58
2022/11/03 03:20:40;;;;;;;33.50;6.80;;;;;;;11.11;100.00;98235.81;5018701;28;20512;-59
2022/11/03 03:23:17;;;;;;;37.00;6.80;;;;;;;11.57;100.00;98228.75;5020593;28;20482;-59
2022/11/03 03:25:49;;;;;;;27.27;6.32;;;;;;;11.21;100.00;98226.69;5020127;28;20061;-58
2022/11/03 03:28:21;;;;;;;34.28;7.38;;;;;;;10.77;100.00;98230.16;5020989;28;20040;-57
2022/11/03 03:30:47;;;;;;;31.58;6.68;;;;;;;10.75;100.00;98218.94;5019340;28;20042;-60
2022/11/03 03:33:14;;;;;;;32.42;6.82;;;;;;;11.26;100.00;98213.47;5019359;28;20557;-57
2022/11/03 03:35:43;;;;;;;28.65;6.00;;;;;;;11.86;100.00;98213.63;5013475;28;20041;-58
2022/11/03 03:38:14;;;;;;;29.38;6.72;;;;;;;11.09;100.00;98216.75;5020928;28;20505;-57
2022/11/03 03:40:44;;;;;;;28.55;6.10;;;;;;;10.59;100.00;98213.44;5019950;28;20042;-58
2022/11/03 03:43:13;;;;;;;30.63;6.68;;;;;;;10.32;100.00;98204.88;5020520;28;20036;-59
2022/11/03 03:45:41;;;;;;;28.75;6.25;;;;;;;10.96;100.00;98208.56;5019455;28;20110;-58
2022/11/03 03:48:07;;;;;;;28.40;6.50;;;;;;;11.24;100.00;98199.63;5020948;28;20025;-59
2022/11/03 03:50:37;;;;;;;36.20;7.30;;;;;;;11.11;100.00;98201.88;5019513;28;20103;-58
2022/11/03 03:53:05;;;;;;;27.50;6.32;;;;;;;11.06;100.00;98206.44;5020497;28;20041;-57
2022/11/03 03:55:38;;;;;;;32.38;6.93;;;;;;;10.86;100.00;98200.22;5020260;28;20033;-58
2022/11/03 03:58:04;;;;;;;30.38;6.50;;;;;;;9.68;100.00;98188.88;5020781;28;20069;-58
2022/11/03 04:00:30;;;;;;;34.63;6.95;;;;;;;10.77;100.00;98188.41;5019362;28;20041;-57
2022/11/03 04:02:58;;;;;;;28.95;6.38;;;;;;;11.18;100.00;98190.28;5020244;28;20036;-58
2022/11/03 04:05:25;;;;;;;25.85;5.85;;;;;;;11.59;100.00;98182.50;5020116;28;20441;-59
2022/11/03 04:07:51;;;;;;;26.52;5.88;;;;;;;12.15;100.00;98191.47;5020514;28;20079;-57
2022/11/03 04:10:19;;;;;;;23.92;5.80;;;;;;;12.34;100.00;98183.63;5018756;28;20111;-59
2022/11/03 04:23:43;;;;;;;24.70;6.32;;;;;;;12.61;100.00;98170.19;5020190;28;20044;-58
2022/11/03 04:26:15;;;;;;;26.40;6.00;;;;;;;12.67;100.00;98175.16;5020109;28;20037;-58
2022/11/03 04:28:41;;;;;;;21.20;5.35;;;;;;;12.84;100.00;98177.81;5020274;28;20040;-57
2022/11/03 04:31:15;;;;;;;32.65;7.07;;;;;;;12.50;100.00;98174.16;5018595;28;20041;-59
2022/11/03 04:33:41;;;;;;;27.35;5.90;;;;;;;12.23;100.00;98164.97;5019110;28;20036;-59
2022/11/03 04:36:19;;;;;;;24.88;6.22;;;;;;;11.70;100.00;98164.59;5019472;28;20049;-59
2022/11/03 04:38:45;;;;;;;27.27;6.32;;;;;;;12.14;100.00;98161.81;5019751;28;20026;-57
2022/11/03 04:41:22;;;;;;;30.63;7.15;;;;;;;12.27;100.00;98161.28;5018351;28;20076;-59
2022/11/03 04:43:49;;;;;;;22.17;5.97;;;;;;;12.47;100.00;98153.38;5020226;28;20104;-60
2022/11/03 04:46:20;;;;;;;25.02;6.05;;;;;;;12.49;100.00;98148.91;5019207;28;20604;-57
2022/11/03 04:48:46;;;;;;;29.42;8.10;;;;;;;11.43;100.00;98147.47;5018803;28;20048;-58
2022/11/03 04:51:22;;;;;;;36.72;8.05;;;;;;;11.06;100.00;98138.56;5017050;28;20124;-61
2022/11/03 04:54:00;;;;;;;41.97;8.05;;;;;;;11.31;100.00;98128.81;5017830;28;20092;-59
2022/11/03 04:56:26;;;;;;;31.73;7.22;;;;;;;11.95;100.00;98132.22;5019038;28;20061;-57
2022/11/03 04:58:52;;;;;;;26.02;6.07;;;;;;;12.64;100.00;98139.50;5019960;28;20053;-58
2022/11/03 05:01:20;;;;;;;30.75;6.53;;;;;;;12.75;100.00;98136.38;5017484;28;20056;-58
2022/11/03 05:03:48;;;;;;;28.75;7.05;;;;;;;12.54;100.00;98133.00;5019737;28;20021;-57
2022/11/03 05:06:20;;;;;;;30.17;6.85;;;;;;;12.46;100.00;98130.75;5019055;28;20437;-57
2022/11/03 05:08:57;;;;;;;29.87;7.70;;;;;;;12.24;100.00;98135.25;5019726;28;20029;-57
2022/11/03 05:11:31;;;;;;;37.47;8.38;;;;;;;11.43;100.00;98123.97;5017484;28;20052;-58
2022/11/03 05:14:03;;;;;;;31.60;8.20;;;;;;;12.15;100.00;98121.69;5019435;28;20029;-57
2022/11/03 05:16:29;;;;;;;38.00;8.52;;;;;;;11.79;100.00;98124.16;5018461;28;20049;-57
2022/11/03 05:18:55;;;;;;;28.08;7.45;;;;;;;12.13;100.00;98112.22;5019119;28;20036;-57
2022/11/03 05:21:24;;;;;;;23.52;7.13;;;;;;;12.04;100.00;98105.66;5017852;28;20041;-58
2022/11/03 05:24:00;;;;;;;26.17;7.00;;;;;;;12.36;100.00;98108.56;5018841;28;20079;-57
2022/11/03 05:26:33;;;;;;;32.67;7.47;;;;;;;11.91;100.00;98107.09;5017421;28;20038;-59
2022/11/03 05:29:09;;;;;;;23.02;6.03;;;;;;;12.67;100.00;98096.66;5019017;28;20056;-59
2022/11/03 05:31:36;;;;;;;36.05;7.78;;;;;;;12.44;100.00;98103.84;5016228;28;20038;-59
2022/11/03 05:34:23;;;;;;;34.08;8.15;;;;;;;12.30;100.00;98108.84;5018284;28;20530;-57
2022/11/03 05:36:48;;;;;;;35.90;8.38;;;;;;;11.92;100.00;98087.91;5018083;28;20048;-59
2022/11/03 05:39:29;;;;;;;36.03;8.55;;;;;;;11.82;100.00;98078.72;5018675;28;20029;-57
2022/11/03 05:41:56;;;;;;;29.85;7.43;;;;;;;11.95;100.00;98082.56;5016356;28;20048;-58
2022/11/03 05:44:28;;;;;;;23.42;5.95;;;;;;;12.60;100.00;98071.69;5016641;28;20022;-58
2022/11/03 05:46:54;;;;;;;;;;;;;;;12.36;100.00;98066.72;5016128;28;21043;-58
2022/11/03 05:49:20;;;;;;;26.98;6.72;;;;;;;12.01;100.00;98066.56;5018737;28;19913;-58
2022/11/03 05:51:46;;;;;;;35.63;7.95;;;;;;;12.04;100.00;98055.13;5016738;28;20034;-57
2022/11/03 05:54:32;;;;;;;28.17;7.30;;;;;;;12.05;100.00;98062.91;5018471;28;20069;-57
2022/11/03 05:56:58;;;;;;;34.08;8.13;;;;;;;12.20;100.00;98061.34;5017355;28;20053;-58
2022/11/03 05:59:27;;;;;;;29.23;6.97;;;;;;;11.94;100.00;98058.16;5018480;28;20138;-59
2022/11/03 06:01:54;;;;;;;37.40;8.55;;;;;;;11.67;100.00;98057.63;5016217;28;20065;-60
2022/11/03 06:04:27;;;;;;;23.05;6.70;;;;;;;11.48;100.00;98051.50;5015925;28;20033;-57
2022/11/03 06:07:11;;;;;;;30.10;6.80;;;;;;;12.14;100.00;98054.63;5017798;28;20568;-60
2022/11/03 06:09:36;;;;;;;32.15;8.77;;;;;;;11.96;100.00;98042.41;5018508;28;20041;-59
2022/11/03 06:12:05;;;;;;;36.60;8.82;;;;;;;11.59;100.00;98046.66;5016664;28;20450;-58
2022/11/03 06:14:31;;;;;;;32.88;7.88;;;;;;;11.67;100.00;98039.34;5017970;28;20559;-58
2022/11/03 06:17:06;;;;;;;32.25;8.63;;;;;;;11.91;100.00;98031.31;5017446;28;20152;-57
2022/11/03 06:19:38;;;;;;;27.05;8.52;;;;;;;11.47;100.00;98034.13;5018306;28;20095;-58
2022/11/03 06:22:29;;;;;;;43.55;11.40;;;;;;;12.24;100.00;98041.13;5016757;28;20137;-58
2022/11/03 06:24:59;;;;;;;40.67;11.27;;;;;;;12.09;100.00;98038.31;5017977;28;20115;-58
2022/11/03 06:27:27;;;;;;;36.58;9.23;;;;;;;11.85;100.00;98047.25;5017505;28;20414;-58
2022/11/03 06:29:59;;;;;;;44.70;11.00;;;;;;;11.44;100.00;98035.13;5017649;28;20049;-58
2022/11/03 06:32:26;;;;;;;34.45;9.55;;;;;;;10.23;100.00;98036.56;5016888;28;20041;-59
2022/11/03 06:34:55;;;;;;;38.33;10.30;;;;;;;11.36;100.00;98035.47;5017703;28;20136;-57
2022/11/03 06:37:22;;;;;;;35.45;10.10;;;;;;;11.61;100.00;98036.97;5016747;28;20076;-58
2022/11/03 06:39:48;;;;;;;46.40;11.23;;;;;;;12.09;100.00;98046.16;5017567;28;20044;-57
2022/11/03 06:42:15;;;;;;;30.63;9.77;;;;;;;11.29;100.00;98046.25;5016624;28;20046;-57
2022/11/03 06:44:44;;;;;;;33.85;10.30;;;;;;;12.05;100.00;98046.38;5020417;28;20040;-57
2022/11/03 06:47:23;;;;;;;35.00;10.13;;;;;;;12.98;100.00;98040.19;5021453;28;20276;-57
2022/11/03 06:49:58;;;;;;;40.92;10.43;;;;;;;12.78;100.00;98042.00;5021006;28;20044;-57
2022/11/03 06:52:33;;;;;;;35.53;9.45;;;;;;;12.59;100.00;98039.47;5020801;28;20045;-59
2022/11/03 06:55:00;;;;;;;33.38;9.85;;;;;;;13.13;100.00;98036.78;5021628;28;20099;-58
2022/11/03 06:57:27;;;;;;;33.60;9.60;;;;;;;12.79;100.00;98035.88;5021346;28;20042;-59
2022/11/03 06:59:54;;;;;;;43.63;11.02;;;;;;;13.01;100.00;98032.16;5021181;28;20371;-58
2022/11/03 07:02:44;;;;;;;33.70;9.38;;;;;;;12.87;100.00;98025.84;5020835;28;20045;-58
2022/11/03 07:05:19;;;;;;;35.45;9.60;;;;;;;12.51;100.00;98023.25;5015624;28;20077;-60
2022/11/03 07:07:45;;;;;;;38.53;10.35;;;;;;;13.55;100.00;98022.44;5021381;28;20130;-57
2022/11/03 07:10:11;;;;;;;36.78;10.10;;;;;;;13.92;100.00;98024.88;5020578;28;20677;-58
2022/11/03 07:12:36;;;;;;;33.33;9.80;;;;;;;14.01;100.00;98019.94;5021316;28;20112;-59
2022/11/03 07:15:03;;;;;;;38.13;10.10;;;;;;;14.81;100.00;98025.16;5021490;28;20018;-57
2022/11/03 07:17:29;;;;;;;34.25;10.73;;;;;;;14.82;100.00;98021.59;5020762;28;20061;-57
2022/11/03 07:19:54;;;;;;;253.05;20.98;;;;;;;14.44;100.00;98022.81;5020598;28;20064;-57
2022/11/03 07:22:25;;;;;;;34.88;10.77;;;;;;;15.19;100.00;98008.94;5020796;28;20079;-58
2022/11/03 07:24:58;;;;;;;1438.97;66.30;;;;;;;15.69;100.00;98006.78;5020821;28;20036;-59
2022/11/03 07:27:28;;;;;;;31.48;9.48;;;;;;;15.63;100.00;98013.28;5021022;28;20045;-59
2022/11/03 07:29:59;;;;;;;39.95;10.38;;;;;;;15.44;100.00;97997.78;5020513;28;20033;-58
2022/11/03 07:32:31;;;;;;;31.80;8.63;;;;;;;14.57;100.00;98009.00;5020528;28;20445;-58
2022/11/03 07:35:03;;;;;;;37.10;9.48;;;;;;;15.60;100.00;98001.16;5020927;28;20033;-58
2022/11/03 07:37:29;;;;;;;28.25;8.32;;;;;;;15.58;100.00;97994.31;5020758;28;20040;-57
2022/11/03 07:39:57;;;;;;;41.10;9.10;;;;;;;14.45;100.00;97997.44;5020252;28;20025;-57
2022/11/03 07:42:26;;;;;;;25.85;7.45;;;;;;;13.77;100.00;97995.91;5019952;28;20405;-57
2022/11/03 07:44:52;;;;;;;25.83;7.40;;;;;;;13.60;100.00;97988.09;5020124;28;20483;-57
2022/11/03 07:47:26;;;;;;;24.42;6.85;;;;;;;14.17;100.00;97985.00;5019782;28;20110;-58
2022/11/03 07:49:52;;;;;;;33.90;7.55;;;;;;;14.29;100.00;97980.84;5019332;28;20026;-58
2022/11/03 07:52:22;;;;;;;23.38;6.55;;;;;;;14.87;100.00;97977.53;5019418;28;20034;-61
2022/11/03 07:54:50;;;;;;;20.00;6.60;;;;;;;14.26;100.00;97971.38;5020267;28;20037;-60
2022/11/03 07:57:25;;;;;;;26.33;6.75;;;;;;;14.27;100.00;97967.81;5019311;28;20529;-57
2022/11/03 07:59:55;;;;;;;40.63;8.25;;;;;;;14.08;100.00;97957.53;5019674;28;20032;-58
2022/11/03 08:02:36;;;;;;;33.65;7.60;;;;;;;14.28;100.00;97948.53;5018264;28;20037;-58
2022/11/03 08:05:01;;;;;;;27.20;6.30;;;;;;;15.25;100.00;97955.16;5020317;28;20045;-57
2022/11/03 08:07:27;;;;;;;28.27;7.00;;;;;;;14.18;100.00;97949.97;5018929;28;20037;-59
2022/11/03 08:09:53;;;;;;;36.33;7.25;;;;;;;13.59;100.00;97949.72;5019137;28;20048;-58
2022/11/03 08:12:18;;;;;;;27.05;6.72;;;;;;;14.78;100.00;97947.41;5019382;28;20364;-59
2022/11/03 08:14:44;;;;;;;26.30;6.57;;;;;;;14.13;100.00;97928.41;5020262;28;20249;-58
2022/11/03 08:17:09;;;;;;;31.48;7.00;;;;;;;13.93;100.00;97922.53;5019828;28;20041;-57
2022/11/03 08:19:35;;;;;;;29.45;6.75;;;;;;;14.24;100.00;97920.75;5019760;28;20032;-58
2022/11/03 08:22:00;;;;;;;28.80;6.80;;;;;;;14.52;100.00;97921.78;5018749;28;20494;-59
2022/11/03 08:24:25;;;;;;;25.95;6.97;;;;;;;13.91;100.00;97910.41;5020373;28;20052;-58
2022/11/03 08:26:51;;;;;;;26.67;6.70;;;;;;;14.22;100.00;97906.91;5020116;28;20048;-59
2022/11/03 08:29:16;;;;;;;24.75;6.30;;;;;;;14.16;100.00;97896.75;5020197;28;20033;-61
2022/11/03 08:31:42;;;;;;;26.92;6.43;;;;;;;15.18;100.00;97897.75;5018633;28;20037;-59
2022/11/03 08:34:08;;;;;;;28.23;6.15;;;;;;;15.60;100.00;97896.00;5020517;28;20680;-60
2022/11/03 08:36:33;;;;;;;27.73;6.43;;;;;;;15.57;100.00;97904.09;5019328;28;20111;-58
2022/11/03 08:38:58;;;;;;;26.00;6.35;;;;;;;15.58;100.00;97892.59;5019699;28;20053;-60
2022/11/03 08:41:24;;;;;;;20.73;5.70;;;;;;;15.50;100.00;97891.44;5018862;28;20061;-60
2022/11/03 08:43:49;;;;;;;31.35;6.47;;;;;;;15.78;100.00;97890.53;5019857;28;20318;-58
2022/11/03 08:46:14;;;;;;;23.20;5.13;;;;;;;15.87;100.00;97882.06;5019453;28;20078;-59
2022/11/03 08:48:40;;;;;;;22.10;5.25;;;;;;;15.84;100.00;97878.78;5019764;28;20059;-62
2022/11/03 08:51:07;;;;;;;21.05;5.25;;;;;;;16.12;100.00;97877.81;5017611;28;20071;-58
2022/11/03 08:53:33;;;;;;;27.08;5.93;;;;;;;16.56;100.00;97874.06;5018461;28;20021;-58
2022/11/03 08:55:58;;;;;;;26.27;5.72;;;;;;;16.49;100.00;97872.78;5018661;28;20048;-59
2022/11/03 08:58:24;;;;;;;26.65;5.97;;;;;;;15.91;100.00;97861.66;5019090;28;20039;-59
2022/11/03 09:00:49;;;;;;;18.10;5.00;;;;;;;16.31;100.00;97852.00;5017721;28;20384;-59
2022/11/03 09:03:15;;;;;;;22.42;4.97;;;;;;;17.03;100.00;97851.53;5017990;28;20147;-58
2022/11/03 09:05:40;;;;;;;22.75;5.10;;;;;;;17.79;100.00;97840.91;5018439;28;20037;-59
2022/11/03 09:08:06;;;;;;;25.83;5.20;;;;;;;17.51;100.00;97835.81;5018541;28;20029;-60
2022/11/03 09:10:31;;;;;;;20.45;4.85;;;;;;;17.22;100.00;97847.59;5017269;28;20485;-58
2022/11/03 09:12:56;;;;;;;20.30;4.80;;;;;;;17.80;100.00;97832.88;5018399;28;20025;-60
2022/11/03 09:15:22;;;;;;;16.17;4.07;;;;;;;19.67;100.00;97838.00;5018144;28;20063;-61
2022/11/03 09:17:47;;;;;;;22.20;5.22;;;;;;;19.83;100.00;97827.88;5018747;28;20117;-61
2022/11/03 09:20:13;;;;;;;25.58;5.05;;;;;;;18.21;100.00;97812.31;5017405;28;20064;-60
2022/11/03 09:22:38;;;;;;;18.85;4.18;;;;;;;18.05;100.00;97825.84;5019012;28;20037;-58
2022/11/03 09:25:04;;;;;;;19.00;4.13;;;;;;;18.69;100.00;97820.97;5019343;28;20025;-59
2022/11/03 09:27:30;;;;;;;15.70;3.88;;;;;;;18.72;100.00;97819.03;5017853;28;20041;-60
2022/11/03 09:29:56;;;;;;;25.33;4.97;;;;;;;20.30;95.56;97809.00;5017606;28;20029;-59
2022/11/03 09:32:21;;;;;;;23.20;4.40;;;;;;;18.71;96.71;97799.72;5017672;28;20041;-58
2022/11/03 09:34:47;;;;;;;16.35;3.75;;;;;;;19.09;98.60;97795.88;5018385;28;20079;-58
2022/11/03 09:37:12;;;;;;;20.52;4.35;;;;;;;18.33;100.00;97784.16;5018231;28;20056;-59
2022/11/03 09:39:37;;;;;;;25.20;5.10;;;;;;;18.77;99.53;97785.19;5017548;28;20060;-58
2022/11/03 09:42:04;;;;;;;21.60;4.70;;;;;;;19.09;97.10;97784.47;5016480;28;20045;-60
2022/11/03 09:44:34;;;;;;;24.70;4.82;;;;;;;18.64;100.00;97780.00;5017988;28;20510;-60
2022/11/03 09:47:00;;;;;;;21.27;4.50;;;;;;;19.04;98.32;97776.88;5017951;28;20038;-60
2022/11/03 09:49:27;;;;;;;19.60;4.32;;;;;;;20.19;94.41;97775.47;5018247;28;20495;-58
2022/11/03 09:51:54;;;;;;;20.30;4.40;;;;;;;19.51;92.08;97763.47;5017116;28;20584;-61
2022/11/03 09:54:20;;;;;;;19.40;4.53;;;;;;;18.86;95.73;97761.53;5018176;28;20025;-59
2022/11/03 09:56:46;;;;;;;28.20;4.85;;;;;;;19.32;94.68;97749.09;5017714;28;20090;-61
2022/11/03 09:59:22;;;;;;;21.85;4.75;;;;;;;19.45;92.64;97754.25;5018455;28;20040;-61
2022/11/03 10:01:52;;;;;;;21.95;4.95;;;;;;;20.03;90.00;97753.91;5016222;28;20131;-59
2022/11/03 10:04:26;;;;;;;17.73;3.80;;;;;;;19.70;93.20;97755.69;5018903;28;20087;-59
2022/11/03 10:06:53;;;;;;;23.98;5.00;;;;;;;19.43;92.97;97762.28;5017446;28;20622;-59
2022/11/03 10:09:19;;;;;;;18.20;4.53;;;;;;;20.90;87.92;97764.19;5018257;28;20029;-57
2022/11/03 10:11:45;;;;;;;18.83;4.38;;;;;;;21.20;82.87;97759.00;5016486;28;20076;-59
2022/11/03 10:14:14;;;;;;;19.05;4.47;;;;;;;20.06;84.80;97755.47;5018471;28;20104;-59
2022/11/03 10:16:41;;;;;;;18.67;4.57;;;;;;;20.28;86.14;97757.97;5017701;28;20034;-58
2022/11/03 10:19:12;;;;;;;23.77;5.05;;;;;;;20.60;86.23;97747.34;5017652;28;20101;-58
2022/11/03 10:21:39;;;;;;;19.88;5.03;;;;;;;20.56;85.99;97740.56;5016026;28;20045;-57
2022/11/03 10:24:05;;;;;;;28.42;5.30;;;;;;;20.04;86.56;97734.41;5017089;28;20569;-57
2022/11/03 10:26:44;;;;;;;21.73;4.95;;;;;;;20.56;86.45;97729.97;5017406;28;20047;-58
2022/11/03 10:29:18;;;;;;;24.85;5.97;;;;;;;20.14;85.75;97734.47;5017779;28;20032;-59
2022/11/03 10:31:48;;;;;;;16.70;4.68;;;;;;;20.28;86.13;97722.72;5016632;28;20044;-59
2022/11/03 10:34:24;;;;;;;22.20;5.47;;;;;;;20.95;84.34;97719.56;5017678;28;20025;-60
2022/11/03 10:37:21;;;;;;;21.23;5.10;;;;;;;20.75;84.47;97707.19;5017569;28;20037;-58
2022/11/03 10:39:48;;;;;;;23.63;5.47;;;;;;;20.95;82.80;97713.41;5017317;28;20036;-59
2022/11/03 10:42:24;;;;;;;23.23;5.45;;;;;;;20.70;81.74;97714.75;5016062;28;20451;-60
2022/11/03 10:45:07;;;;;;;20.65;5.00;;;;;;;20.42;85.75;97703.84;5009803;28;20034;-58
2022/11/03 10:47:33;;;;;;;21.73;5.43;;;;;;;21.61;82.70;97693.44;5017814;28;20116;-58
2022/11/03 10:50:20;;;;;;;24.08;5.05;;;;;;;20.71;83.50;97695.19;5017353;28;20117;-60
2022/11/03 10:52:45;;;;;;;18.95;4.65;;;;;;;20.61;86.40;97692.53;5017660;28;20041;-58
2022/11/03 10:55:11;;;;;;;21.55;4.95;;;;;;;20.42;83.79;97701.19;5017375;28;20552;-58
2022/11/03 10:57:36;;;;;;;16.30;4.85;;;;;;;20.32;84.11;97695.84;5018066;28;20044;-58
2022/11/03 11:00:03;;;;;;;20.45;4.95;;;;;;;21.04;82.04;97695.84;5016796;28;20120;-59
2022/11/03 11:02:30;;;;;;;19.80;5.35;;;;;;;20.84;83.18;97689.66;5016830;28;20068;-61
2022/11/03 11:05:01;;;;;;;21.02;5.22;;;;;;;20.31;83.41;97688.00;5017655;28;20445;-58
2022/11/03 11:07:37;;;;;;;25.88;5.07;;;;;;;20.64;84.26;97688.75;5015345;28;20041;-58
2022/11/03 11:10:07;;;;;;;20.55;5.13;;;;;;;20.55;85.19;97685.91;5016712;28;20033;-58
2022/11/03 11:12:32;;;;;;;22.70;5.50;;;;;;;20.46;87.10;97675.25;5016124;28;20045;-59
2022/11/03 11:15:00;;;;;;;24.13;5.65;;;;;;;20.74;84.33;97663.13;5017524;28;20017;-59
2022/11/03 11:17:46;;;;;;;18.98;4.53;;;;;;;21.11;82.80;97659.88;5016957;28;20053;-59
2022/11/03 11:20:20;;;;;;;19.27;4.28;;;;;;;21.22;87.57;97650.94;5016614;28;20491;-58
2022/11/03 11:22:47;;;;;;;23.40;5.25;;;;;;;21.28;82.71;97640.59;5016871;28;20025;-58
2022/11/03 11:25:12;;;;;;;19.80;5.13;;;;;;;22.17;78.30;97641.38;5017519;28;20494;-58
2022/11/03 11:27:38;;;;;;;24.45;5.63;;;;;;;20.96;86.00;97641.69;5016632;28;20237;-58
2022/11/03 11:30:06;;;;;;;19.15;5.22;;;;;;;21.40;83.61;97643.13;5016913;28;20025;-60
2022/11/03 11:32:40;;;;;;;19.85;4.80;;;;;;;21.17;89.84;97632.78;5019523;28;20063;-60
2022/11/03 11:35:07;;;;;;;22.40;4.88;;;;;;;21.34;83.39;97637.41;5020871;28;20091;-58
2022/11/03 11:37:34;;;;;;;19.30;4.60;;;;;;;21.97;84.33;97625.50;5020426;28;20042;-59
2022/11/03 11:40:00;;;;;;;23.63;5.15;;;;;;;21.79;80.25;97624.56;5019796;28;20025;-58
2022/11/03 11:42:25;;;;;;;19.33;5.00;;;;;;;20.78;83.43;97627.44;5020127;28;20048;-60
2022/11/03 11:44:55;;;;;;;21.10;5.38;;;;;;;22.19;80.51;97624.28;5021067;28;20033;-60
2022/11/03 11:47:27;;;;;;;15.18;4.32;;;;;;;21.36;85.34;97606.28;5020137;28;20587;-58
2022/11/03 11:50:04;;;;;;;29.00;6.40;;;;;;;21.41;81.23;97608.47;5020436;28;20079;-61
2022/11/03 11:52:41;;;;;;;18.77;5.03;;;;;;;21.11;82.91;97606.81;5020095;28;20479;-58
2022/11/03 11:55:36;;;;;;;23.17;5.82;;;;;;;21.22;83.16;97601.38;5020671;28;20678;-58
2022/11/03 11:58:03;;;;;;;23.20;5.53;;;;;;;21.38;81.58;97593.69;5019888;28;20056;-58
2022/11/03 12:00:31;;;;;;;20.70;4.80;;;;;;;21.15;84.92;97587.00;5019466;28;20060;-58
2022/11/03 12:02:58;;;;;;;20.38;4.68;;;;;;;20.76;87.74;97594.94;5019536;28;20120;-59
2022/11/03 12:05:32;;;;;;;21.52;5.03;;;;;;;21.40;83.59;97585.59;5019883;28;20030;-59
2022/11/03 12:07:59;;;;;;;17.80;4.75;;;;;;;21.10;84.30;97583.94;5020217;28;20018;-58
2022/11/03 12:10:27;;;;;;;25.90;5.13;;;;;;;21.49;84.10;97581.31;5018936;28;20100;-58
2022/11/03 12:12:53;;;;;;;17.63;4.88;;;;;;;21.37;84.55;97576.09;5019781;28;20041;-59
2022/11/03 12:15:47;;;;;;;21.83;5.40;;;;;;;21.48;84.86;97571.66;5019279;28;20029;-61
2022/11/03 12:18:31;;;;;;;24.30;5.80;;;;;;;21.22;85.13;97572.22;5019338;28;20025;-58
2022/11/03 12:20:58;;;;;;;22.05;5.18;;;;;;;21.65;83.42;97562.97;5018419;28;20049;-59
2022/11/03 12:23:41;;;;;;;20.23;5.28;;;;;;;21.48;83.51;97558.41;5019821;28;20269;-59
2022/11/03 12:26:28;;;;;;;19.77;5.13;;;;;;;21.34;87.92;97549.88;5019506;28;21032;-59
2022/11/03 12:28:53;;;;;;;23.00;5.43;;;;;;;21.87;84.17;97539.69;5020258;28;20029;-58
2022/11/03 12:31:19;;;;;;;22.77;6.00;;;;;;;20.83;85.06;97540.41;5018090;28;20043;-59
2022/11/03 12:33:45;;;;;;;21.10;5.22;;;;;;;21.40;88.04;97521.94;5020715;28;20037;-59
2022/11/03 12:36:10;;;;;;;19.70;5.35;;;;;;;21.29;86.31;97528.22;5019472;28;20045;-60
2022/11/03 12:38:36;;;;;;;18.20;5.68;;;;;;;21.06;87.50;97524.19;5019872;28;20021;-60